sensor_id;sensor_type;location;lat;lon;timestamp;pressure;altitude;pressure_sealevel;temperature
76895;BMP280;65855;42.030;13.078;2023-11-22T00:00:33;92008.94;;;8.48
76895;BMP280;65855;42.030;13.078;2023-11-22T00:02:59;92003.34;;;8.51
76895;BMP280;65855;42.030;13.078;2023-11-22T00:05:24;91998.91;;;8.48
76895;BMP280;65855;42.030;13.078;2023-11-22T00:07:49;91994.03;;;8.51
76895;BMP280;65855;42.030;13.078;2023-11-22T00:10:15;91993.56;;;8.58
76895;BMP280;65855;42.030;13.078;2023-11-22T00:12:40;91997.91;;;8.40
76895;BMP280;65855;42.030;13.078;2023-11-22T00:15:07;91984.22;;;8.30
76895;BMP280;65855;42.030;13.078;2023-11-22T00:17:36;91971.84;;;8.25
76895;BMP280;65855;42.030;13.078;2023-11-22T00:20:02;91954.69;;;8.27
76895;BMP280;65855;42.030;13.078;2023-11-22T00:22:33;91951.88;;;8.28
76895;BMP280;65855;42.030;13.078;2023-11-22T00:24:59;91937.75;;;8.24
76895;BMP280;65855;42.030;13.078;2023-11-22T00:27:27;91935.97;;;8.24
76895;BMP280;65855;42.030;13.078;2023-11-22T00:29:52;91929.28;;;8.28
76895;BMP280;65855;42.030;13.078;2023-11-22T00:32:18;91909.47;;;8.35
76895;BMP280;65855;42.030;13.078;2023-11-22T00:34:44;91909.72;;;8.42
76895;BMP280;65855;42.030;13.078;2023-11-22T00:37:09;91906.22;;;8.43
76895;BMP280;65855;42.030;13.078;2023-11-22T00:39:36;91905.59;;;8.46
76895;BMP280;65855;42.030;13.078;2023-11-22T00:42:02;91898.47;;;8.48
76895;BMP280;65855;42.030;13.078;2023-11-22T00:44:29;91892.97;;;8.54
76895;BMP280;65855;42.030;13.078;2023-11-22T00:46:55;91900.34;;;8.59
76895;BMP280;65855;42.030;13.078;2023-11-22T00:49:22;91906.22;;;8.43
76895;BMP280;65855;42.030;13.078;2023-11-22T00:51:47;91906.97;;;8.35
76895;BMP280;65855;42.030;13.078;2023-11-22T00:54:13;91909.47;;;8.35
76895;BMP280;65855;42.030;13.078;2023-11-22T00:56:38;91910.09;;;8.32
76895;BMP280;65855;42.030;13.078;2023-11-22T00:59:04;91897.19;;;8.42
76895;BMP280;65855;42.030;13.078;2023-11-22T01:01:30;91892.56;;;8.52
76895;BMP280;65855;42.030;13.078;2023-11-22T01:03:57;91890.47;;;8.54
76895;BMP280;65855;42.030;13.078;2023-11-22T01:06:23;91892.59;;;8.44
76895;BMP280;65855;42.030;13.078;2023-11-22T01:08:48;91896.75;;;8.40
76895;BMP280;65855;42.030;13.078;2023-11-22T01:11:14;91889.22;;;8.40
76895;BMP280;65855;42.030;13.078;2023-11-22T01:13:39;91882.88;;;8.42
76895;BMP280;65855;42.030;13.078;2023-11-22T01:16:09;91889.22;;;8.40
76895;BMP280;65855;42.030;13.078;2023-11-22T01:18:35;91886.53;;;8.45
76895;BMP280;65855;42.030;13.078;2023-11-22T01:21:00;91883.66;;;8.55
76895;BMP280;65855;42.030;13.078;2023-11-22T01:23:26;91870.03;;;8.64
76895;BMP280;65855;42.030;13.078;2023-11-22T01:25:53;91882.75;;;8.59
76895;BMP280;65855;42.030;13.078;2023-11-22T01:28:18;91886.13;;;8.63
76895;BMP280;65855;42.030;13.078;2023-11-22T01:30:44;91875.78;;;8.64
76895;BMP280;65855;42.030;13.078;2023-11-22T01:33:14;91877.25;;;8.65
76895;BMP280;65855;42.030;13.078;2023-11-22T01:35:40;91880.91;;;8.48
76895;BMP280;65855;42.030;13.078;2023-11-22T01:38:06;91880.06;;;8.44
76895;BMP280;65855;42.030;13.078;2023-11-22T01:40:31;91882.56;;;8.44
76895;BMP280;65855;42.030;13.078;2023-11-22T01:42:58;91876.19;;;8.46
76895;BMP280;65855;42.030;13.078;2023-11-22T01:45:23;91876.94;;;8.47
76895;BMP280;65855;42.030;13.078;2023-11-22T01:47:49;91882.00;;;8.39
76895;BMP280;65855;42.030;13.078;2023-11-22T01:50:15;91886.59;;;8.37
76895;BMP280;65855;42.030;13.078;2023-11-22T01:52:41;91887.34;;;8.37
76895;BMP280;65855;42.030;13.078;2023-11-22T01:55:08;91874.59;;;8.42
76895;BMP280;65855;42.030;13.078;2023-11-22T01:57:34;91875.63;;;8.41
76895;BMP280;65855;42.030;13.078;2023-11-22T02:00:04;91861.53;;;8.48
76895;BMP280;65855;42.030;13.078;2023-11-22T02:02:33;91862.03;;;8.42
76895;BMP280;65855;42.030;13.078;2023-11-22T02:04:59;91866.88;;;8.47
76895;BMP280;65855;42.030;13.078;2023-11-22T02:07:27;91866.63;;;8.40
76895;BMP280;65855;42.030;13.078;2023-11-22T02:09:52;91865.59;;;8.41
76895;BMP280;65855;42.030;13.078;2023-11-22T02:12:18;91872.28;;;8.37
76895;BMP280;65855;42.030;13.078;2023-11-22T02:14:45;91862.66;;;8.39
76895;BMP280;65855;42.030;13.078;2023-11-22T02:17:10;91864.84;;;8.40
76895;BMP280;65855;42.030;13.078;2023-11-22T02:19:36;91871.22;;;8.38
76895;BMP280;65855;42.030;13.078;2023-11-22T02:22:02;91869.19;;;8.32
76895;BMP280;65855;42.030;13.078;2023-11-22T02:24:27;91863.69;;;8.38
76895;BMP280;65855;42.030;13.078;2023-11-22T02:26:53;91865.16;;;8.39
76895;BMP280;65855;42.030;13.078;2023-11-22T02:29:18;91868.28;;;8.36
76895;BMP280;65855;42.030;13.078;2023-11-22T02:31:44;91875.25;;;8.31
76895;BMP280;65855;42.030;13.078;2023-11-22T02:34:09;91876.16;;;8.26
76895;BMP280;65855;42.030;13.078;2023-11-22T02:36:35;91871.41;;;8.33
76895;BMP280;65855;42.030;13.078;2023-11-22T02:39:00;91873.75;;;8.38
76895;BMP280;65855;42.030;13.078;2023-11-22T02:41:29;91877.78;;;8.22
76895;BMP280;65855;42.030;13.078;2023-11-22T02:43:57;91881.84;;;8.35
76895;BMP280;65855;42.030;13.078;2023-11-22T02:46:22;91885.06;;;8.44
76895;BMP280;65855;42.030;13.078;2023-11-22T02:48:49;91888.44;;;8.48
76895;BMP280;65855;42.030;13.078;2023-11-22T02:51:14;91883.56;;;8.51
76895;BMP280;65855;42.030;13.078;2023-11-22T02:53:40;91888.69;;;8.55
76895;BMP280;65855;42.030;13.078;2023-11-22T02:56:11;91903.06;;;8.46
76895;BMP280;65855;42.030;13.078;2023-11-22T02:58:36;91904.22;;;8.48
76895;BMP280;65855;42.030;13.078;2023-11-22T03:01:02;91904.38;;;8.52
76895;BMP280;65855;42.030;13.078;2023-11-22T03:03:27;91906.88;;;8.52
76895;BMP280;65855;42.030;13.078;2023-11-22T03:05:53;91911.03;;;8.48
76895;BMP280;65855;42.030;13.078;2023-11-22T03:08:19;91919.06;;;8.62
76895;BMP280;65855;42.030;13.078;2023-11-22T03:10:44;91918.78;;;8.35
76895;BMP280;65855;42.030;13.078;2023-11-22T03:13:10;91916.22;;;8.15
76895;BMP280;65855;42.030;13.078;2023-11-22T03:15:35;91919.81;;;8.05
76895;BMP280;65855;42.030;13.078;2023-11-22T03:18:01;91925.09;;;8.12
76895;BMP280;65855;42.030;13.078;2023-11-22T03:20:27;91932.94;;;8.11
76895;BMP280;65855;42.030;13.078;2023-11-22T03:22:53;91926.31;;;7.98
76895;BMP280;65855;42.030;13.078;2023-11-22T03:25:18;91918.94;;;7.93
76895;BMP280;65855;42.030;13.078;2023-11-22T03:27:44;91928.41;;;7.88
76895;BMP280;65855;42.030;13.078;2023-11-22T03:30:10;91927.66;;;7.87
76895;BMP280;65855;42.030;13.078;2023-11-22T03:32:38;91922.81;;;7.82
76895;BMP280;65855;42.030;13.078;2023-11-22T03:35:07;91922.50;;;7.84
76895;BMP280;65855;42.030;13.078;2023-11-22T03:37:34;91928.84;;;7.81
76895;BMP280;65855;42.030;13.078;2023-11-22T03:39:59;91925.31;;;7.82
76895;BMP280;65855;42.030;13.078;2023-11-22T03:42:25;91924.13;;;7.88
76895;BMP280;65855;42.030;13.078;2023-11-22T03:44:52;91922.19;;;7.93
76895;BMP280;65855;42.030;13.078;2023-11-22T03:47:17;91935.63;;;7.89
76895;BMP280;65855;42.030;13.078;2023-11-22T03:49:42;91931.94;;;7.87
76895;BMP280;65855;42.030;13.078;2023-11-22T03:52:10;91925.56;;;7.89
76895;BMP280;65855;42.030;13.078;2023-11-22T03:54:36;91930.75;;;7.92
76895;BMP280;65855;42.030;13.078;2023-11-22T03:57:01;91940.78;;;7.84
76895;BMP280;65855;42.030;13.078;2023-11-22T03:59:28;91942.13;;;7.82
76895;BMP280;65855;42.030;13.078;2023-11-22T04:01:54;91938.88;;;7.81
76895;BMP280;65855;42.030;13.078;2023-11-22T04:04:20;91936.69;;;7.80
76895;BMP280;65855;42.030;13.078;2023-11-22T04:06:45;91937.53;;;7.84
76895;BMP280;65855;42.030;13.078;2023-11-22T04:09:10;91932.69;;;7.87
76895;BMP280;65855;42.030;13.078;2023-11-22T04:11:39;91931.53;;;7.76
76895;BMP280;65855;42.030;13.078;2023-11-22T04:14:05;91935.53;;;7.69
76895;BMP280;65855;42.030;13.078;2023-11-22T04:16:30;91932.44;;;7.64
76895;BMP280;65855;42.030;13.078;2023-11-22T04:18:56;91937.16;;;7.73
76895;BMP280;65855;42.030;13.078;2023-11-22T04:21:22;91925.00;;;7.84
76895;BMP280;65855;42.030;13.078;2023-11-22T04:23:47;91925.72;;;7.92
76895;BMP280;65855;42.030;13.078;2023-11-22T04:26:13;91925.41;;;8.11
76895;BMP280;65855;42.030;13.078;2023-11-22T04:28:39;91927.72;;;8.15
76895;BMP280;65855;42.030;13.078;2023-11-22T04:31:04;91927.28;;;8.14
76895;BMP280;65855;42.030;13.078;2023-11-22T04:33:29;91933.84;;;7.98
76895;BMP280;65855;42.030;13.078;2023-11-22T04:35:55;91945.25;;;7.79
76895;BMP280;65855;42.030;13.078;2023-11-22T04:38:21;91946.25;;;7.86
76895;BMP280;65855;42.030;13.078;2023-11-22T04:40:47;91948.31;;;7.84
76895;BMP280;65855;42.030;13.078;2023-11-22T04:43:13;91952.13;;;7.98
76895;BMP280;65855;42.030;13.078;2023-11-22T04:45:38;91954.31;;;8.08
76895;BMP280;65855;42.030;13.078;2023-11-22T04:48:04;91969.06;;;8.01
76895;BMP280;65855;42.030;13.078;2023-11-22T04:50:31;91976.75;;;7.96
76895;BMP280;65855;42.030;13.078;2023-11-22T04:52:57;91967.91;;;7.99
76895;BMP280;65855;42.030;13.078;2023-11-22T04:55:23;91982.97;;;7.99
76895;BMP280;65855;42.030;13.078;2023-11-22T04:57:49;91978.38;;;8.09
76895;BMP280;65855;42.030;13.078;2023-11-22T05:00:14;91997.56;;;7.97
76895;BMP280;65855;42.030;13.078;2023-11-22T05:02:40;91993.31;;;7.89
76895;BMP280;65855;42.030;13.078;2023-11-22T05:05:06;91986.50;;;7.98
76895;BMP280;65855;42.030;13.078;2023-11-22T05:07:32;91983.69;;;7.99
76895;BMP280;65855;42.030;13.078;2023-11-22T05:09:57;91981.03;;;7.96
76895;BMP280;65855;42.030;13.078;2023-11-22T05:12:23;91977.78;;;8.04
76895;BMP280;65855;42.030;13.078;2023-11-22T05:14:49;91980.47;;;7.99
76895;BMP280;65855;42.030;13.078;2023-11-22T05:17:14;91978.38;;;8.01
76895;BMP280;65855;42.030;13.078;2023-11-22T05:19:39;91972.78;;;8.04
76895;BMP280;65855;42.030;13.078;2023-11-22T05:22:05;91967.75;;;8.04
76895;BMP280;65855;42.030;13.078;2023-11-22T05:24:30;91971.75;;;8.05
76895;BMP280;65855;42.030;13.078;2023-11-22T05:26:56;91970.16;;;7.92
76895;BMP280;65855;42.030;13.078;2023-11-22T05:29:21;91969.25;;;8.05
76895;BMP280;65855;42.030;13.078;2023-11-22T05:31:47;91981.50;;;7.98
76895;BMP280;65855;42.030;13.078;2023-11-22T05:34:13;91994.06;;;7.81
76895;BMP280;65855;42.030;13.078;2023-11-22T05:36:38;91985.06;;;7.80
76895;BMP280;65855;42.030;13.078;2023-11-22T05:39:03;91994.63;;;7.95
76895;BMP280;65855;42.030;13.078;2023-11-22T05:41:29;91979.28;;;8.05
76895;BMP280;65855;42.030;13.078;2023-11-22T05:43:54;91978.81;;;8.03
76895;BMP280;65855;42.030;13.078;2023-11-22T05:46:22;91994.53;;;7.75
76895;BMP280;65855;42.030;13.078;2023-11-22T05:48:48;91984.22;;;7.51
76895;BMP280;65855;42.030;13.078;2023-11-22T05:51:15;91976.84;;;7.55
76895;BMP280;65855;42.030;13.078;2023-11-22T05:53:41;91982.16;;;7.62
76895;BMP280;65855;42.030;13.078;2023-11-22T05:56:06;91979.47;;;7.58
76895;BMP280;65855;42.030;13.078;2023-11-22T05:58:34;91976.69;;;7.60
76895;BMP280;65855;42.030;13.078;2023-11-22T06:00:59;91974.75;;;7.65
76895;BMP280;65855;42.030;13.078;2023-11-22T06:03:25;91980.97;;;7.59
76895;BMP280;65855;42.030;13.078;2023-11-22T06:05:50;91973.44;;;7.67
76895;BMP280;65855;42.030;13.078;2023-11-22T06:08:16;91973.72;;;7.74
76895;BMP280;65855;42.030;13.078;2023-11-22T06:10:42;91986.84;;;7.71
76895;BMP280;65855;42.030;13.078;2023-11-22T06:13:07;92000.16;;;7.47
76895;BMP280;65855;42.030;13.078;2023-11-22T06:15:34;91989.09;;;7.31
76895;BMP280;65855;42.030;13.078;2023-11-22T06:17:59;91979.34;;;7.38
76895;BMP280;65855;42.030;13.078;2023-11-22T06:20:25;91983.03;;;7.32
76895;BMP280;65855;42.030;13.078;2023-11-22T06:22:52;91975.22;;;7.25
76895;BMP280;65855;42.030;13.078;2023-11-22T06:25:17;91976.13;;;7.29
76895;BMP280;65855;42.030;13.078;2023-11-22T06:27:43;91965.34;;;7.45
76895;BMP280;65855;42.030;13.078;2023-11-22T06:30:08;91960.03;;;7.55
76895;BMP280;65855;42.030;13.078;2023-11-22T06:32:36;91972.88;;;7.54
76895;BMP280;65855;42.030;13.078;2023-11-22T06:35:02;91971.69;;;7.60
76895;BMP280;65855;42.030;13.078;2023-11-22T06:37:28;91973.59;;;7.63
76895;BMP280;65855;42.030;13.078;2023-11-22T06:39:53;91974.34;;;7.55
76895;BMP280;65855;42.030;13.078;2023-11-22T06:42:19;91970.38;;;7.54
76895;BMP280;65855;42.030;13.078;2023-11-22T06:44:47;91978.19;;;7.44
76895;BMP280;65855;42.030;13.078;2023-11-22T06:47:18;91984.66;;;7.53
76895;BMP280;65855;42.030;13.078;2023-11-22T06:49:43;91982.63;;;7.47
76895;BMP280;65855;42.030;13.078;2023-11-22T06:52:09;91994.69;;;7.62
76895;BMP280;65855;42.030;13.078;2023-11-22T06:54:34;91997.31;;;7.65
76895;BMP280;65855;42.030;13.078;2023-11-22T06:57:02;92001.03;;;7.67
76895;BMP280;65855;42.030;13.078;2023-11-22T06:59:28;92000.28;;;7.67
76895;BMP280;65855;42.030;13.078;2023-11-22T07:01:53;91999.97;;;7.68
76895;BMP280;65855;42.030;13.078;2023-11-22T07:04:21;92001.63;;;7.56
76895;BMP280;65855;42.030;13.078;2023-11-22T07:06:46;92000.13;;;7.39
76895;BMP280;65855;42.030;13.078;2023-11-22T07:09:12;92011.22;;;7.46
76895;BMP280;65855;42.030;13.078;2023-11-22T07:11:39;92007.22;;;7.37
76895;BMP280;65855;42.030;13.078;2023-11-22T07:14:04;91987.97;;;7.90
76895;BMP280;65855;42.030;13.078;2023-11-22T07:16:30;91980.47;;;8.72
76895;BMP280;65855;42.030;13.078;2023-11-22T07:18:56;91973.28;;;9.31
76895;BMP280;65855;42.030;13.078;2023-11-22T07:21:22;91997.09;;;10.06
76895;BMP280;65855;42.030;13.078;2023-11-22T07:23:48;92027.59;;;10.36
76895;BMP280;65855;42.030;13.078;2023-11-22T07:26:13;92085.59;;;10.07
76895;BMP280;65855;42.030;13.078;2023-11-22T07:28:42;92086.56;;;11.02
76895;BMP280;65855;42.030;13.078;2023-11-22T07:31:08;92130.09;;;9.75
76895;BMP280;65855;42.030;13.078;2023-11-22T07:33:34;92122.94;;;11.48
76895;BMP280;65855;42.030;13.078;2023-11-22T07:36:00;92214.22;;;11.85
76895;BMP280;65855;42.030;13.078;2023-11-22T07:38:25;92238.94;;;12.93
76895;BMP280;65855;42.030;13.078;2023-11-22T07:40:51;92349.22;;;14.20
76895;BMP280;65855;42.030;13.078;2023-11-22T07:43:17;92370.78;;;14.44
76895;BMP280;65855;42.030;13.078;2023-11-22T07:45:43;92380.09;;;14.71
76895;BMP280;65855;42.030;13.078;2023-11-22T07:48:10;92382.66;;;14.89
76895;BMP280;65855;42.030;13.078;2023-11-22T07:50:37;92385.69;;;15.66
76895;BMP280;65855;42.030;13.078;2023-11-22T07:53:04;92402.09;;;13.64
76895;BMP280;65855;42.030;13.078;2023-11-22T07:55:30;92396.38;;;12.43
76895;BMP280;65855;42.030;13.078;2023-11-22T07:57:56;92352.91;;;11.06
76895;BMP280;65855;42.030;13.078;2023-11-22T08:00:22;92265.75;;;9.97
76895;BMP280;65855;42.030;13.078;2023-11-22T08:02:48;92237.09;;;10.70
76895;BMP280;65855;42.030;13.078;2023-11-22T08:05:15;92306.97;;;11.33
76895;BMP280;65855;42.030;13.078;2023-11-22T08:07:41;92280.28;;;11.32
76895;BMP280;65855;42.030;13.078;2023-11-22T08:10:07;92308.03;;;12.97
76895;BMP280;65855;42.030;13.078;2023-11-22T08:12:47;92356.63;;;14.59
76895;BMP280;65855;42.030;13.078;2023-11-22T08:15:15;92380.41;;;15.56
76895;BMP280;65855;42.030;13.078;2023-11-22T08:17:41;92399.06;;;16.66
76895;BMP280;65855;42.030;13.078;2023-11-22T08:20:07;92418.16;;;16.57
76895;BMP280;65855;42.030;13.078;2023-11-22T08:22:38;92409.59;;;16.90
76895;BMP280;65855;42.030;13.078;2023-11-22T08:25:04;92409.97;;;17.72
76895;BMP280;65855;42.030;13.078;2023-11-22T08:27:30;92412.28;;;17.84
76895;BMP280;65855;42.030;13.078;2023-11-22T08:29:56;92410.91;;;16.34
76895;BMP280;65855;42.030;13.078;2023-11-22T08:32:22;92410.91;;;16.34
76895;BMP280;65855;42.030;13.078;2023-11-22T08:34:50;92430.31;;;17.11
76895;BMP280;65855;42.030;13.078;2023-11-22T08:37:17;92414.69;;;12.98
76895;BMP280;65855;42.030;13.078;2023-11-22T08:39:42;92401.63;;;12.02
76895;BMP280;65855;42.030;13.078;2023-11-22T08:42:08;92391.53;;;14.65
76895;BMP280;65855;42.030;13.078;2023-11-22T08:44:37;92401.19;;;15.61
76895;BMP280;65855;42.030;13.078;2023-11-22T08:47:03;92405.13;;;17.35
76895;BMP280;65855;42.030;13.078;2023-11-22T08:49:29;92425.06;;;16.79
76895;BMP280;65855;42.030;13.078;2023-11-22T08:51:56;92421.78;;;13.97
76895;BMP280;65855;42.030;13.078;2023-11-22T08:54:22;92398.44;;;13.50
76895;BMP280;65855;42.030;13.078;2023-11-22T08:56:47;92406.47;;;14.85
76895;BMP280;65855;42.030;13.078;2023-11-22T08:59:13;92434.78;;;15.51
76895;BMP280;65855;42.030;13.078;2023-11-22T09:01:38;92415.34;;;13.46
76895;BMP280;65855;42.030;13.078;2023-11-22T09:04:05;92426.50;;;12.59
76895;BMP280;65855;42.030;13.078;2023-11-22T09:06:33;92417.81;;;13.58
76895;BMP280;65855;42.030;13.078;2023-11-22T09:09:00;92435.09;;;12.11
76895;BMP280;65855;42.030;13.078;2023-11-22T09:11:26;92442.16;;;13.35
76895;BMP280;65855;42.030;13.078;2023-11-22T09:13:51;92435.56;;;12.48
76895;BMP280;65855;42.030;13.078;2023-11-22T09:16:18;92440.66;;;13.46
76895;BMP280;65855;42.030;13.078;2023-11-22T09:18:47;92442.28;;;13.93
76895;BMP280;65855;42.030;13.078;2023-11-22T09:21:12;92461.03;;;14.61
76895;BMP280;65855;42.030;13.078;2023-11-22T09:23:38;92463.19;;;15.57
76895;BMP280;65855;42.030;13.078;2023-11-22T09:26:04;92459.78;;;17.95
76895;BMP280;65855;42.030;13.078;2023-11-22T09:28:30;92458.34;;;19.12
76895;BMP280;65855;42.030;13.078;2023-11-22T09:30:56;92466.56;;;19.41
76895;BMP280;65855;42.030;13.078;2023-11-22T09:33:31;92468.91;;;21.16
76895;BMP280;65855;42.030;13.078;2023-11-22T09:35:56;92471.88;;;20.87
76895;BMP280;65855;42.030;13.078;2023-11-22T09:38:23;92472.94;;;21.47
76895;BMP280;65855;42.030;13.078;2023-11-22T09:40:50;92476.03;;;22.23
76895;BMP280;65855;42.030;13.078;2023-11-22T09:43:17;92482.94;;;23.04
76895;BMP280;65855;42.030;13.078;2023-11-22T09:45:49;92485.97;;;23.82
76895;BMP280;65855;42.030;13.078;2023-11-22T09:48:20;92500.00;;;23.27
76895;BMP280;65855;42.030;13.078;2023-11-22T09:53:41;92507.53;;;23.94
76895;BMP280;65855;42.030;13.078;2023-11-22T09:56:11;92511.28;;;23.47
76895;BMP280;65855;42.030;13.078;2023-11-22T09:58:40;92514.34;;;23.75
76895;BMP280;65855;42.030;13.078;2023-11-22T10:01:11;92503.69;;;22.69
76895;BMP280;65855;42.030;13.078;2023-11-22T10:03:37;92510.50;;;20.30
76895;BMP280;65855;42.030;13.078;2023-11-22T10:06:02;92517.59;;;19.80
76895;BMP280;65855;42.030;13.078;2023-11-22T10:08:29;92520.59;;;18.58
76895;BMP280;65855;42.030;13.078;2023-11-22T10:10:58;92536.69;;;17.97
76895;BMP280;65855;42.030;13.078;2023-11-22T10:13:24;92526.94;;;19.59
76895;BMP280;65855;42.030;13.078;2023-11-22T10:15:50;92521.66;;;21.20
76895;BMP280;65855;42.030;13.078;2023-11-22T10:18:18;92514.59;;;22.94
76895;BMP280;65855;42.030;13.078;2023-11-22T10:20:44;92508.59;;;23.61
76895;BMP280;65855;42.030;13.078;2023-11-22T10:23:19;92516.50;;;24.78
76895;BMP280;65855;42.030;13.078;2023-11-22T10:25:46;92508.97;;;26.06
76895;BMP280;65855;42.030;13.078;2023-11-22T10:28:25;92512.13;;;25.72
76895;BMP280;65855;42.030;13.078;2023-11-22T10:30:51;92513.31;;;25.19
76895;BMP280;65855;42.030;13.078;2023-11-22T10:33:18;92520.31;;;23.18
76895;BMP280;65855;42.030;13.078;2023-11-22T10:35:49;92526.06;;;21.47
76895;BMP280;65855;42.030;13.078;2023-11-22T10:38:18;92531.22;;;21.43
76895;BMP280;65855;42.030;13.078;2023-11-22T10:40:44;92537.81;;;21.41
76895;BMP280;65855;42.030;13.078;2023-11-22T10:43:16;92529.72;;;21.15
76895;BMP280;65855;42.030;13.078;2023-11-22T10:45:44;92526.00;;;20.65
76895;BMP280;65855;42.030;13.078;2023-11-22T10:48:16;92536.97;;;20.65
76895;BMP280;65855;42.030;13.078;2023-11-22T10:50:45;92540.66;;;20.74
76895;BMP280;65855;42.030;13.078;2023-11-22T10:53:13;92533.63;;;19.74
76895;BMP280;65855;42.030;13.078;2023-11-22T10:55:44;92545.50;;;20.09
76895;BMP280;65855;42.030;13.078;2023-11-22T10:58:10;92541.44;;;21.19
76895;BMP280;65855;42.030;13.078;2023-11-22T11:00:40;92546.50;;;20.65
76895;BMP280;65855;42.030;13.078;2023-11-22T11:03:18;92543.91;;;19.84
76895;BMP280;65855;42.030;13.078;2023-11-22T11:05:52;92561.97;;;20.12
76895;BMP280;65855;42.030;13.078;2023-11-22T11:08:20;92567.69;;;20.51
76895;BMP280;65855;42.030;13.078;2023-11-22T11:10:47;92556.84;;;21.47
76895;BMP280;65855;42.030;13.078;2023-11-22T11:13:14;92555.00;;;22.97
76895;BMP280;65855;42.030;13.078;2023-11-22T11:15:41;92552.38;;;22.16
76895;BMP280;65855;42.030;13.078;2023-11-22T11:18:10;92553.16;;;22.06
76895;BMP280;65855;42.030;13.078;2023-11-22T11:20:46;92575.03;;;22.45
76895;BMP280;65855;42.030;13.078;2023-11-22T11:23:16;92561.25;;;21.53
76895;BMP280;65855;42.030;13.078;2023-11-22T11:25:42;92572.59;;;22.00
76895;BMP280;65855;42.030;13.078;2023-11-22T11:28:11;92568.84;;;22.18
76895;BMP280;65855;42.030;13.078;2023-11-22T11:30:49;92560.91;;;22.87
76895;BMP280;65855;42.030;13.078;2023-11-22T11:33:19;92557.47;;;22.30
76895;BMP280;65855;42.030;13.078;2023-11-22T11:35:51;92560.44;;;20.77
76895;BMP280;65855;42.030;13.078;2023-11-22T11:38:21;92563.53;;;20.33
76895;BMP280;65855;42.030;13.078;2023-11-22T11:40:48;92567.22;;;19.73
76895;BMP280;65855;42.030;13.078;2023-11-22T11:43:14;92568.69;;;18.85
76895;BMP280;65855;42.030;13.078;2023-11-22T11:45:42;92571.28;;;18.56
76895;BMP280;65855;42.030;13.078;2023-11-22T11:48:16;92571.78;;;18.36
76895;BMP280;65855;42.030;13.078;2023-11-22T11:50:42;92586.97;;;18.90
76895;BMP280;65855;42.030;13.078;2023-11-22T11:53:09;92586.16;;;20.24
76895;BMP280;65855;42.030;13.078;2023-11-22T11:55:36;92576.91;;;20.80
76895;BMP280;65855;42.030;13.078;2023-11-22T11:58:06;92573.97;;;20.71
76895;BMP280;65855;42.030;13.078;2023-11-22T12:00:35;92575.19;;;21.35
76895;BMP280;65855;42.030;13.078;2023-11-22T12:03:05;92572.97;;;21.78
76895;BMP280;65855;42.030;13.078;2023-11-22T12:05:31;92569.25;;;22.20
76895;BMP280;65855;42.030;13.078;2023-11-22T12:07:56;92579.53;;;21.86
76895;BMP280;65855;42.030;13.078;2023-11-22T12:10:22;92571.28;;;22.60
76895;BMP280;65855;42.030;13.078;2023-11-22T12:12:49;92566.97;;;22.36
76895;BMP280;65855;42.030;13.078;2023-11-22T12:15:14;92564.25;;;23.87
76895;BMP280;65855;42.030;13.078;2023-11-22T12:17:40;92573.88;;;25.37
76895;BMP280;65855;42.030;13.078;2023-11-22T12:20:13;92574.94;;;26.11
76895;BMP280;65855;42.030;13.078;2023-11-22T12:22:40;92573.25;;;26.24
76895;BMP280;65855;42.030;13.078;2023-11-22T12:25:06;92584.06;;;26.38
76895;BMP280;65855;42.030;13.078;2023-11-22T12:27:32;92585.78;;;27.36
76895;BMP280;65855;42.030;13.078;2023-11-22T12:29:57;92585.13;;;26.98
76895;BMP280;65855;42.030;13.078;2023-11-22T12:32:26;92606.34;;;25.87
76895;BMP280;65855;42.030;13.078;2023-11-22T12:34:51;92591.75;;;26.00
76895;BMP280;65855;42.030;13.078;2023-11-22T12:37:21;92592.09;;;26.02
76895;BMP280;65855;42.030;13.078;2023-11-22T12:39:48;92588.44;;;26.41
76895;BMP280;65855;42.030;13.078;2023-11-22T12:42:13;92587.88;;;27.26
76895;BMP280;65855;42.030;13.078;2023-11-22T12:44:51;92593.00;;;27.45
76895;BMP280;65855;42.030;13.078;2023-11-22T12:47:33;92593.22;;;28.84
76895;BMP280;65855;42.030;13.078;2023-11-22T12:50:03;92606.38;;;29.05
76895;BMP280;65855;42.030;13.078;2023-11-22T12:52:32;92605.91;;;28.54
76895;BMP280;65855;42.030;13.078;2023-11-22T12:54:58;92609.50;;;29.13
76895;BMP280;65855;42.030;13.078;2023-11-22T12:57:24;92607.25;;;29.51
76895;BMP280;65855;42.030;13.078;2023-11-22T12:59:49;92604.84;;;25.41
76895;BMP280;65855;42.030;13.078;2023-11-22T13:02:15;92623.88;;;22.17
76895;BMP280;65855;42.030;13.078;2023-11-22T13:04:42;92636.06;;;27.54
76895;BMP280;65855;42.030;13.078;2023-11-22T13:07:08;92625.09;;;28.85
76895;BMP280;65855;42.030;13.078;2023-11-22T13:09:34;92635.38;;;20.64
76895;BMP280;65855;42.030;13.078;2023-11-22T13:12:01;92644.47;;;20.48
76895;BMP280;65855;42.030;13.078;2023-11-22T13:14:26;92638.19;;;21.60
76895;BMP280;65855;42.030;13.078;2023-11-22T13:16:57;92637.88;;;20.47
76895;BMP280;65855;42.030;13.078;2023-11-22T13:19:22;92636.03;;;21.93
76895;BMP280;65855;42.030;13.078;2023-11-22T13:21:50;92642.66;;;23.76
76895;BMP280;65855;42.030;13.078;2023-11-22T13:24:15;92646.28;;;23.25
76895;BMP280;65855;42.030;13.078;2023-11-22T13:26:43;92646.28;;;21.55
76895;BMP280;65855;42.030;13.078;2023-11-22T13:29:08;92656.38;;;20.97
76895;BMP280;65855;42.030;13.078;2023-11-22T13:31:34;92654.53;;;23.60
76895;BMP280;65855;42.030;13.078;2023-11-22T13:33:59;92658.66;;;22.60
76895;BMP280;65855;42.030;13.078;2023-11-22T13:36:25;92647.53;;;27.88
76895;BMP280;65855;42.030;13.078;2023-11-22T13:38:50;92652.47;;;22.37
76895;BMP280;65855;42.030;13.078;2023-11-22T13:41:15;92656.84;;;26.55
76895;BMP280;65855;42.030;13.078;2023-11-22T13:43:41;92669.75;;;20.53
76895;BMP280;65855;42.030;13.078;2023-11-22T13:46:06;92669.28;;;22.75
76895;BMP280;65855;42.030;13.078;2023-11-22T13:48:35;92668.19;;;25.16
76895;BMP280;65855;42.030;13.078;2023-11-22T13:51:00;92674.38;;;20.37
76895;BMP280;65855;42.030;13.078;2023-11-22T13:53:28;92685.16;;;20.70
76895;BMP280;65855;42.030;13.078;2023-11-22T13:55:58;92684.28;;;20.42
76895;BMP280;65855;42.030;13.078;2023-11-22T13:58:26;92685.13;;;20.00
76895;BMP280;65855;42.030;13.078;2023-11-22T14:00:51;92694.91;;;18.04
76895;BMP280;65855;42.030;13.078;2023-11-22T14:03:19;92702.00;;;21.75